ADDS TAF Data INFO
IDs: Format: Raw Decoded Include METARs

Data at: 1549 UTC 18 Jan 2018

KPGV 181122Z 1812/1912 30007KT P6SM SKC
  FM181700 28009KT P6SM SKC
  FM182300 VRB03KT P6SM SKC AMD LTD TO CLD VIS AND WIND